Time;durP1;ratioP1;P1;durP2;ratioP2;P2;SDS_P1;SDS_P2;PMS_P1;PMS_P2;Temp;Humidity;BMP_temperature;BMP_pressure;BME280_temperature;BME280_humidity;BME280_pressure;Samples;Min_cycle;Max_cycle;Signal;HPM_P1;HPM_P2
2023/01/23 00:00:30;;;;;;;;;36.50;24.00;;;;;3.27;100.00;103068.97;5011140;28;58504;-84
2023/01/23 00:02:55;;;;;;;;;31.75;19.50;;;;;3.26;100.00;103067.22;4995585;28;45506;-85
2023/01/23 00:05:21;;;;;;;;;31.25;25.00;;;;;3.36;100.00;103070.13;4995389;28;45470;-84
2023/01/23 00:07:46;;;;;;;;;25.75;15.75;;;;;3.35;100.00;103055.53;4995607;28;45577;-84
2023/01/23 00:10:12;;;;;;;;;34.25;22.50;;;;;3.21;100.00;103040.44;4995444;28;45501;-85
2023/01/23 00:12:41;;;;;;;;;29.25;22.00;;;;;3.29;100.00;103061.31;4994958;28;57698;-84
2023/01/23 00:15:07;;;;;;;;;34.00;21.25;;;;;3.27;100.00;103055.25;4996130;28;46621;-85
2023/01/23 00:17:32;;;;;;;;;31.00;22.50;;;;;3.25;100.00;103056.84;4996574;28;45302;-84
2023/01/23 00:19:59;;;;;;;;;21.75;18.00;;;;;3.21;100.00;103055.88;5011193;28;61391;-85
2023/01/23 00:22:24;;;;;;;;;30.75;22.00;;;;;3.17;100.00;103053.97;5011939;28;45275;-85
2023/01/23 00:24:49;;;;;;;;;31.50;24.25;;;;;3.18;100.00;103049.75;4995252;28;47120;-84
2023/01/23 00:27:15;;;;;;;;;38.50;27.00;;;;;3.24;100.00;103066.28;5011040;28;58941;-84
2023/01/23 00:29:40;;;;;;;;;26.00;19.50;;;;;3.27;100.00;103061.25;4995340;28;62018;-84
2023/01/23 00:32:05;;;;;;;;;42.00;30.25;;;;;3.19;100.00;103034.31;4978086;28;65015;-84
2023/01/23 00:34:31;;;;;;;;;22.00;14.00;;;;;3.27;100.00;103057.81;5005149;28;67012;-84
2023/01/23 00:36:56;;;;;;;;;21.75;19.00;;;;;3.30;100.00;103060.50;4997595;28;61951;-84
2023/01/23 00:39:21;;;;;;;;;32.00;22.50;;;;;3.18;100.00;103031.72;4998183;28;45338;-85
2023/01/23 00:41:48;;;;;;;;;30.25;21.50;;;;;3.37;100.00;103064.19;5015984;28;45278;-84
2023/01/23 00:44:14;;;;;;;;;36.00;22.50;;;;;3.25;100.00;103049.13;4997954;28;46449;-85
2023/01/23 00:46:39;;;;;;;;;27.25;19.75;;;;;3.35;100.00;103063.25;4998253;28;45850;-84
2023/01/23 00:49:05;;;;;;;;;32.25;21.00;;;;;3.36;100.00;103068.47;4998407;28;45373;-84
2023/01/23 00:51:30;;;;;;;;;25.50;20.50;;;;;3.28;100.00;103056.97;4998359;28;45489;-84
2023/01/23 00:53:56;;;;;;;;;36.50;23.50;;;;;3.25;100.00;103046.56;5015864;28;47175;-84
2023/01/23 00:56:21;;;;;;;;;28.25;21.00;;;;;3.21;100.00;103039.53;5015918;28;45368;-84
2023/01/23 00:58:46;;;;;;;;;23.00;19.50;;;;;3.25;100.00;103054.28;4997504;28;60308;-84
2023/01/23 01:01:13;;;;;;;;;27.25;22.50;;;;;3.27;100.00;103057.81;5015729;28;45432;-85
2023/01/23 01:03:38;;;;;;;;;30.00;17.00;;;;;3.27;100.00;103052.66;4998060;28;45480;-84
2023/01/23 01:06:04;;;;;;;;;40.75;27.25;;;;;3.27;100.00;103042.38;4997571;28;59652;-84
2023/01/23 01:08:29;;;;;;;;;28.75;21.25;;;;;3.41;100.00;103056.63;5017254;28;45370;-84
2023/01/23 01:10:55;;;;;;;;;22.50;19.50;;;;;3.41;100.00;103056.63;5017960;28;62585;-84
2023/01/23 01:13:22;;;;;;;;;38.75;21.25;;;;;3.40;100.00;103069.44;5001050;28;45356;-85
2023/01/23 01:15:48;;;;;;;;;35.25;21.50;;;;;3.42;100.00;103065.25;5001575;28;45384;-84
2023/01/23 01:18:14;;;;;;;;;32.75;20.25;;;;;3.45;100.00;103066.22;5019259;28;45322;-84
2023/01/23 01:20:41;;;;;;;;;33.75;25.00;;;;;3.47;100.00;103061.13;5001468;28;45360;-85
2023/01/23 01:23:06;;;;;;;;;26.00;24.50;;;;;3.49;100.00;103057.81;5019181;28;46504;-84
2023/01/23 01:25:31;;;;;;;;;33.75;24.25;;;;;3.31;100.00;103023.66;5001374;28;45342;-85
2023/01/23 01:27:57;;;;;;;;;37.25;29.00;;;;;3.59;100.00;103060.72;5018214;28;57541;-84
2023/01/23 01:30:25;;;;;;;;;32.00;18.75;;;;;3.58;100.00;103059.81;4983718;28;45265;-84
2023/01/23 01:32:51;;;;;;;;;27.50;22.50;;;;;3.53;100.00;103053.66;4986649;28;47137;-85
2023/01/23 01:35:17;;;;;;;;;25.50;21.00;;;;;3.48;100.00;103045.75;4997502;28;45559;-84
2023/01/23 01:37:42;;;;;;;;;26.50;24.50;;;;;3.40;100.00;103046.25;4998993;28;45408;-84
2023/01/23 01:40:12;;;;;;;;;31.00;18.75;;;;;3.30;100.00;103034.75;4980648;28;56599;-84
2023/01/23 01:42:40;;;;;;;;;38.00;26.00;;;;;3.38;100.00;103050.47;4998393;28;46391;-84
2023/01/23 01:45:06;;;;;;;;;28.50;23.00;;;;;3.25;100.00;103037.16;4997676;28;45896;-84
2023/01/23 01:47:32;;;;;;;;;26.50;22.50;;;;;3.15;100.00;103016.16;4999043;28;45361;-85
2023/01/23 01:50:02;;;;;;;;;23.25;20.50;;;;;3.31;100.00;103049.38;4998644;28;45373;-85
2023/01/23 01:52:27;;;;;;;;;18.25;15.25;;;;;3.24;100.00;103032.81;4997679;28;45626;-85
2023/01/23 01:55:00;;;;;;;;;31.50;26.00;;;;;3.25;100.00;103021.72;4996363;28;68001;-85
2023/01/23 01:57:29;;;;;;;;;34.50;24.75;;;;;3.32;100.00;103027.09;4997693;28;45364;-84
2023/01/23 02:00:03;;;;;;;;;29.00;20.75;;;;;3.34;100.00;103028.03;4997564;28;45754;-84
2023/01/23 02:02:36;;;;;;;;;45.00;27.00;;;;;3.39;100.00;103047.97;4998615;28;45649;-85
2023/01/23 02:05:08;;;;;;;;;30.50;24.50;;;;;3.39;100.00;103054.81;4980799;28;45850;-85
2023/01/23 02:07:58;;;;;;;;;35.25;24.50;;;;;3.30;100.00;103040.75;4997464;28;45306;-84
2023/01/23 02:10:23;;;;;;;;;45.00;26.00;;;;;3.32;100.00;103039.97;4937206;28;45518;-84
2023/01/23 02:12:50;;;;;;;;;40.75;25.75;;;;;3.33;100.00;103040.03;4921400;28;46216;-85
2023/01/23 02:15:17;;;;;;;;;37.75;24.75;;;;;3.29;100.00;103039.03;4937516;28;45381;-85
2023/01/23 02:17:43;;;;;;;;;42.00;24.00;;;;;3.18;100.00;103027.44;4937879;28;45464;-84
2023/01/23 02:20:19;;;;;;;;;34.00;24.00;;;;;3.35;100.00;103042.66;4921069;28;61696;-84
2023/01/23 02:23:02;;;;;;;;;33.75;23.50;;;;;3.36;100.00;103040.16;4937509;28;45575;-84
2023/01/23 02:25:36;;;;;;;;;38.25;21.50;;;;;3.38;100.00;103037.59;4936903;28;45368;-84
2023/01/23 02:28:02;;;;;;;;;37.00;24.25;;;;;3.39;100.00;103037.66;4937712;28;45388;-84
2023/01/23 02:30:27;;;;;;;;;31.25;21.25;;;;;3.37;100.00;103025.56;4936098;28;45391;-85
2023/01/23 02:32:52;;;;;;;;;27.25;16.50;;;;;3.37;100.00;103021.28;4936783;28;51979;-84
2023/01/23 02:35:26;;;;;;;;;38.50;25.00;;;;;3.42;100.00;103027.50;4940034;28;52266;-84
2023/01/23 02:37:55;;;;;;;;;34.25;24.75;;;;;3.51;100.00;103034.69;4940857;28;45545;-84
2023/01/23 02:40:36;;;;;;;;;31.50;22.75;;;;;3.51;100.00;103045.00;4956567;28;45755;-84
2023/01/23 02:43:04;;;;;;;;;35.00;24.00;;;;;3.45;100.00;103034.44;4940504;28;46386;-85
2023/01/23 02:45:30;;;;;;;;;38.25;26.00;;;;;3.43;100.00;103029.22;4940406;28;45496;-85
2023/01/23 02:47:55;;;;;;;;;36.75;25.00;;;;;3.38;100.00;103030.78;4991272;28;45317;-84
2023/01/23 02:50:21;;;;;;;;;48.50;25.50;;;;;3.40;100.00;103054.88;5016519;28;45451;-85
2023/01/23 02:52:48;;;;;;;;;30.50;19.00;;;;;3.39;100.00;103054.81;5015645;28;66921;-84
2023/01/23 02:55:13;;;;;;;;;44.25;27.50;;;;;3.40;100.00;103057.47;5015994;28;45378;-84
2023/01/23 02:57:39;;;;;;;;;34.75;27.75;;;;;3.37;100.00;103054.75;5017705;28;45713;-85
2023/01/23 03:00:19;;;;;;;;;32.75;24.25;;;;;3.31;100.00;103046.81;5017077;28;61716;-84
2023/01/23 03:02:49;;;;;;;;;34.75;25.50;;;;;3.25;100.00;103039.72;5016571;28;46653;-84
2023/01/23 03:05:15;;;;;;;;;30.00;28.75;;;;;3.25;100.00;103038.84;5017473;28;45295;-84
2023/01/23 03:07:41;;;;;;;;;49.50;28.50;;;;;3.16;100.00;103029.09;5017308;28;45298;-84
2023/01/23 03:10:08;;;;;;;;;40.25;30.25;;;;;3.17;100.00;103038.53;5016493;28;45285;-85
2023/01/23 03:12:33;;;;;;;;;35.50;24.00;;;;;3.22;100.00;103054.19;5015699;28;46339;-84
2023/01/23 03:14:59;;;;;;;;;32.00;21.75;;;;;3.21;100.00;103054.97;5015863;28;45734;-84
2023/01/23 03:17:24;;;;;;;;;37.00;23.75;;;;;3.18;100.00;103049.75;4999656;28;45539;-84
2023/01/23 03:19:50;;;;;;;;;44.00;28.00;;;;;3.19;100.00;103051.47;5032593;28;45362;-84
2023/01/23 03:22:15;;;;;;;;;37.75;21.75;;;;;3.27;100.00;103056.09;5015836;28;46132;-85
2023/01/23 03:24:40;;;;;;;;;33.75;22.50;;;;;3.22;100.00;103055.06;5015626;28;45397;-84
2023/01/23 03:27:06;;;;;;;;;35.75;21.25;;;;;3.25;100.00;103062.00;5016032;28;45400;-85
2023/01/23 03:32:16;;;;;;;;;34.25;27.00;;;;;3.28;100.00;103054.41;4995507;28;45505;-84
2023/01/23 03:34:41;;;;;;;;;38.50;27.75;;;;;3.24;100.00;103048.25;5007014;28;45680;-85
2023/01/23 03:37:08;;;;;;;;;49.50;26.50;;;;;3.33;100.00;103058.03;4999111;28;45447;-84
2023/01/23 03:42:18;;;;;;;;;39.50;24.75;;;;;3.30;100.00;103048.47;5001811;28;45815;-85
2023/01/23 03:44:43;;;;;;;;;39.00;21.25;;;;;3.30;100.00;103048.47;4982732;28;45515;-85
2023/01/23 03:47:09;;;;;;;;;40.50;28.50;;;;;3.39;100.00;103049.66;4998572;28;61507;-85
2023/01/23 03:49:34;;;;;;;;;40.50;25.50;;;;;3.41;100.00;103056.63;4982733;28;45529;-85
2023/01/23 03:52:00;;;;;;;;;29.25;22.50;;;;;3.45;100.00;103049.91;4998538;28;45630;-84
2023/01/23 03:54:26;;;;;;;;;38.00;22.75;;;;;3.47;100.00;103044.00;5016520;28;45714;-85
2023/01/23 03:56:52;;;;;;;;;37.50;26.00;;;;;3.47;100.00;103035.38;4981779;28;66509;-85
2023/01/23 03:59:17;;;;;;;;;32.00;27.00;;;;;3.45;100.00;103030.16;5015370;28;45511;-85
2023/01/23 04:01:42;;;;;;;;;45.25;26.00;;;;;3.46;100.00;103026.78;4981837;28;65336;-84
2023/01/23 04:04:08;;;;;;;;;37.50;26.00;;;;;3.47;100.00;103032.81;4998330;28;64990;-84
2023/01/23 04:06:33;;;;;;;;;36.00;22.50;;;;;3.41;100.00;103032.59;4998413;28;45385;-85
2023/01/23 04:08:59;;;;;;;;;46.25;26.25;;;;;3.35;100.00;103024.63;4998858;28;45294;-84
2023/01/23 04:11:25;;;;;;;;;36.25;26.25;;;;;3.46;100.00;103038.78;4997692;28;67596;-84
2023/01/23 04:13:51;;;;;;;;;33.25;27.50;;;;;3.47;100.00;103050.81;5016326;28;45355;-84
2023/01/23 04:16:16;;;;;;;;;48.25;24.75;;;;;3.33;100.00;103034.88;4982479;28;45267;-85
2023/01/23 04:18:42;;;;;;;;;39.50;22.50;;;;;3.36;100.00;103047.88;4998964;28;45559;-85
2023/01/23 04:21:07;;;;;;;;;45.00;29.25;;;;;3.27;100.00;103047.53;4997475;28;64655;-85
2023/01/23 04:23:33;;;;;;;;;40.75;26.50;;;;;3.27;100.00;103047.53;4998480;28;45298;-85
2023/01/23 04:25:58;;;;;;;;;39.75;24.00;;;;;3.30;100.00;103042.47;5016092;28;45196;-84
2023/01/23 04:28:23;;;;;;;;;34.00;21.75;;;;;3.34;100.00;103046.03;4980015;28;65072;-84
2023/01/23 04:30:50;;;;;;;;;34.75;26.75;;;;;3.33;100.00;103037.44;4978676;28;54183;-84
2023/01/23 04:33:16;;;;;;;;;33.25;25.50;;;;;3.38;100.00;103056.53;4987298;28;45454;-84
2023/01/23 04:35:55;;;;;;;;;33.50;22.50;;;;;3.35;100.00;103045.22;5014129;28;45404;-84
2023/01/23 04:38:22;;;;;;;;;40.25;24.75;;;;;3.32;100.00;103045.09;5014838;28;45458;-84
2023/01/23 04:40:48;;;;;;;;;36.75;23.75;;;;;3.39;100.00;103059.97;5015138;28;46605;-84
2023/01/23 04:43:14;;;;;;;;;36.25;26.00;;;;;3.28;100.00;103050.13;5013788;28;45266;-83
2023/01/23 04:45:39;;;;;;;;;40.75;28.75;;;;;3.33;100.00;103057.16;5015565;28;56199;-84
2023/01/23 04:48:05;;;;;;;;;32.75;21.50;;;;;3.28;100.00;103052.69;5016265;28;45284;-85
2023/01/23 04:50:31;;;;;;;;;43.75;29.25;;;;;3.30;100.00;103053.63;4997546;28;48206;-84
2023/01/23 04:52:57;;;;;;;;;30.25;19.75;;;;;3.32;100.00;103063.13;5031448;28;45423;-84
2023/01/23 04:55:23;;;;;;;;;43.50;29.00;;;;;3.36;100.00;103072.72;5015041;28;45401;-85
2023/01/23 04:57:48;;;;;;;;;37.00;24.25;;;;;3.30;100.00;103066.50;5015824;28;45422;-84
2023/01/23 05:00:14;;;;;;;;;37.25;29.75;;;;;3.30;100.00;103063.06;5013917;28;65025;-84
2023/01/23 05:02:39;;;;;;;;;46.25;24.00;;;;;3.28;100.00;103056.97;5015384;28;45479;-84
2023/01/23 05:05:05;;;;;;;;;31.00;17.00;;;;;3.25;100.00;103056.84;5014897;28;61117;-85
2023/01/23 05:07:30;;;;;;;;;34.25;25.00;;;;;3.22;100.00;103049.91;5016013;28;45437;-84
2023/01/23 05:09:56;;;;;;;;;26.25;19.50;;;;;3.29;100.00;103062.19;5013868;28;63133;-84
2023/01/23 05:12:21;;;;;;;;;27.00;21.25;;;;;3.25;100.00;103064.56;4996847;28;66885;-85
2023/01/23 05:14:46;;;;;;;;;34.50;24.25;;;;;3.28;100.00;103078.44;5014311;28;45739;-84
2023/01/23 05:17:12;;;;;;;;;29.50;20.75;;;;;3.19;100.00;103079.78;5014017;28;51029;-85
2023/01/23 05:19:37;;;;;;;;;34.00;29.25;;;;;3.12;100.00;103059.78;4997069;28;59029;-84
2023/01/23 05:22:02;;;;;;;;;33.50;25.00;;;;;3.11;100.00;103064.06;5015465;28;55962;-84
2023/01/23 05:24:28;;;;;;;;;39.50;23.50;;;;;3.18;100.00;103075.47;5030942;28;45290;-84
2023/01/23 05:26:53;;;;;;;;;36.75;25.00;;;;;3.10;100.00;103052.00;5014857;28;59435;-84
2023/01/23 05:29:18;;;;;;;;;44.25;30.75;;;;;3.20;100.00;103069.56;5004299;28;67120;-84
2023/01/23 05:31:44;;;;;;;;;39.75;27.50;;;;;3.19;100.00;103066.91;4995567;28;45381;-84
2023/01/23 05:34:09;;;;;;;;;41.50;28.25;;;;;3.27;100.00;103081.84;5000313;28;58683;-84
2023/01/23 05:36:34;;;;;;;;;43.75;26.50;;;;;3.22;100.00;103091.09;5013479;28;65177;-85
2023/01/23 05:39:00;;;;;;;;;38.25;27.00;;;;;3.23;100.00;103092.84;5013024;28;71374;-84
2023/01/23 05:41:25;;;;;;;;;47.50;28.00;;;;;3.25;100.00;103090.31;5014413;28;63444;-84
2023/01/23 05:43:50;;;;;;;;;39.00;30.00;;;;;3.18;100.00;103086.63;5013492;28;62328;-85
2023/01/23 05:46:16;;;;;;;;;35.25;25.50;;;;;3.19;100.00;103093.53;5014732;28;57564;-83
2023/01/23 05:48:41;;;;;;;;;34.25;25.50;;;;;3.16;100.00;103096.00;4996514;28;66423;-84
2023/01/23 05:51:06;;;;;;;;;36.25;25.00;;;;;3.10;100.00;103088.00;5014940;28;52529;-84
2023/01/23 05:53:32;;;;;;;;;44.25;22.50;;;;;3.10;100.00;103104.34;5013691;28;52001;-85
2023/01/23 05:55:57;;;;;;;;;45.25;29.00;;;;;3.05;100.00;103103.28;5017571;28;62883;-84
2023/01/23 05:58:22;;;;;;;;;41.50;28.75;;;;;3.03;100.00;103096.34;5017502;28;46401;-84
2023/01/23 06:00:48;;;;;;;;;39.50;29.00;;;;;3.02;100.00;103103.16;5033285;28;62022;-84
2023/01/23 06:03:13;;;;;;;;;40.50;25.25;;;;;3.06;100.00;103112.75;5016277;28;58805;-84
2023/01/23 06:05:39;;;;;;;;;33.50;24.25;;;;;3.02;100.00;103107.44;5017453;28;45579;-84
2023/01/23 06:08:05;;;;;;;;;34.75;23.00;;;;;3.00;100.00;103111.66;5017048;28;47180;-84
2023/01/23 06:10:30;;;;;;;;;35.75;23.75;;;;;3.07;100.00;103126.50;5017152;28;45373;-84
2023/01/23 06:12:55;;;;;;;;;40.25;29.50;;;;;3.06;100.00;103117.03;5000752;28;45327;-84
2023/01/23 06:15:21;;;;;;;;;31.75;24.00;;;;;3.03;100.00;103116.94;5018288;28;45646;-84
2023/01/23 06:17:46;;;;;;;;;34.50;22.00;;;;;2.94;100.00;103117.41;5017075;28;67626;-84
2023/01/23 06:20:12;;;;;;;;;38.75;18.75;;;;;2.99;100.00;103118.50;5016445;28;63104;-84
2023/01/23 06:22:37;;;;;;;;;34.50;20.50;;;;;2.98;100.00;103124.44;5018085;28;45213;-84
2023/01/23 06:25:03;;;;;;;;;30.75;20.75;;;;;3.08;100.00;103131.72;5016272;28;61708;-85
2023/01/23 06:27:28;;;;;;;;;31.00;22.50;;;;;3.05;100.00;103121.31;5017904;28;46283;-84
2023/01/23 06:29:54;;;;;;;;;27.75;17.50;;;;;3.09;100.00;103123.19;5002855;28;45323;-83
2023/01/23 06:32:19;;;;;;;;;30.50;19.75;;;;;2.98;100.00;103098.72;4995929;28;54922;-84
2023/01/23 06:34:45;;;;;;;;;31.50;23.75;;;;;3.00;100.00;103107.38;4997965;28;45643;-84
2023/01/23 06:37:10;;;;;;;;;28.50;22.00;;;;;3.15;100.00;103130.25;4995924;28;72012;-84
2023/01/23 06:39:35;;;;;;;;;32.75;23.00;;;;;3.16;100.00;103133.72;4996434;28;47059;-84
2023/01/23 06:42:01;;;;;;;;;37.75;24.75;;;;;3.16;100.00;103123.41;4997724;28;45273;-84
2023/01/23 06:44:26;;;;;;;;;34.75;24.75;;;;;3.10;100.00;103116.31;4996588;28;45247;-84
2023/01/23 06:46:52;;;;;;;;;30.25;22.00;;;;;3.19;100.00;103132.13;4995547;28;62268;-84
2023/01/23 06:49:17;;;;;;;;;53.00;30.75;;;;;3.10;100.00;103106.94;4996351;28;45507;-84
2023/01/23 06:51:43;;;;;;;;;34.50;25.50;;;;;3.19;100.00;103127.00;4996344;28;45432;-84
2023/01/23 06:54:08;;;;;;;;;36.25;24.25;;;;;3.11;100.00;103115.53;4996309;28;45448;-84
2023/01/23 06:56:33;;;;;;;;;35.50;23.50;;;;;3.08;100.00;103117.97;4996222;28;46400;-84
2023/01/23 06:58:59;;;;;;;;;40.00;27.75;;;;;3.00;100.00;103102.22;4996031;28;62344;-84
2023/01/23 07:01:25;;;;;;;;;32.75;24.50;;;;;3.14;100.00;103128.53;4996231;28;45384;-84
2023/01/23 07:03:50;;;;;;;;;31.50;22.50;;;;;3.21;100.00;103143.41;4997703;28;45326;-84
2023/01/23 07:06:16;;;;;;;;;37.00;21.50;;;;;3.09;100.00;103112.00;4995274;28;46267;-84
2023/01/23 07:08:41;;;;;;;;;31.50;28.00;;;;;3.24;100.00;103133.19;4996243;28;45400;-84
2023/01/23 07:11:07;;;;;;;;;33.50;24.25;;;;;3.28;100.00;103131.63;4996365;28;45499;-84
2023/01/23 07:13:33;;;;;;;;;31.75;21.25;;;;;3.28;100.00;103126.47;4996533;28;45524;-84
2023/01/23 07:15:58;;;;;;;;;35.00;21.50;;;;;3.21;100.00;103115.09;4995888;28;46427;-84
2023/01/23 07:18:27;;;;;;;;;47.00;27.50;;;;;3.16;100.00;103113.13;4996238;28;45450;-84
2023/01/23 07:20:52;;;;;;;;;29.25;20.50;;;;;3.17;100.00;103118.34;4996339;28;45465;-84
2023/01/23 07:23:18;;;;;;;;;33.75;23.50;;;;;3.09;100.00;103105.16;4979848;28;45453;-84
2023/01/23 07:25:43;;;;;;;;;30.75;21.75;;;;;3.14;100.00;103101.88;4979514;28;47506;-84
2023/01/23 07:28:09;;;;;;;;;35.75;26.75;;;;;3.21;100.00;103116.75;4996164;28;45315;-84
2023/01/23 07:30:34;;;;;;;;;29.75;21.50;;;;;3.06;100.00;103099.88;4995621;28;45343;-84
2023/01/23 07:32:59;;;;;;;;;24.75;22.75;;;;;3.16;100.00;103115.69;4996213;28;60949;-84
2023/01/23 07:35:25;;;;;;;;;38.00;27.00;;;;;3.19;100.00;103132.13;4978691;28;68755;-84
2023/01/23 07:37:50;;;;;;;;;29.50;20.00;;;;;3.08;100.00;103113.72;4996997;28;45518;-84
2023/01/23 07:40:16;;;;;;;;;32.50;20.00;;;;;3.12;100.00;103129.25;4962582;28;64319;-85
2023/01/23 07:42:41;;;;;;;;;37.00;21.75;;;;;3.17;100.00;103131.19;4997590;28;45348;-89
2023/01/23 07:45:08;;;;;;;;;41.00;26.50;;;;;3.23;100.00;103128.00;4978679;28;47147;-85
2023/01/23 07:47:35;;;;;;;;;34.25;18.00;;;;;3.28;100.00;103129.06;4996050;28;45833;-87
2023/01/23 07:50:00;;;;;;;;;36.75;24.00;;;;;3.34;100.00;103143.88;4979164;28;45455;-87
2023/01/23 07:52:26;;;;;;;;;29.25;19.00;;;;;3.32;100.00;103142.94;4996716;28;45318;-89
2023/01/23 07:54:58;;;;;;;;;30.00;21.75;;;;;3.24;100.00;103135.78;4980603;28;45569;-89
2023/01/23 07:57:24;;;;;;;;;27.25;22.00;;;;;3.05;100.00;103097.28;4980357;28;45504;-87
2023/01/23 07:59:49;;;;;;;;;37.00;22.00;;;;;3.13;100.00;103116.47;4962466;28;47169;-87
2023/01/23 08:02:15;;;;;;;;;35.50;23.25;;;;;3.21;100.00;103117.66;4979606;28;45538;-87
2023/01/23 08:04:40;;;;;;;;;25.25;16.00;;;;;3.30;100.00;103132.56;4980434;28;47208;-89
2023/01/23 08:07:05;;;;;;;;;40.50;24.50;;;;;3.29;100.00;103123.09;4979870;28;45453;-89
2023/01/23 08:09:31;;;;;;;;;33.25;24.50;;;;;3.24;100.00;103111.75;4997399;28;45323;-89
2023/01/23 08:11:56;;;;;;;;;28.00;18.00;;;;;3.12;100.00;103099.28;4979691;28;45469;-91
2023/01/23 08:14:22;;;;;;;;;34.50;23.50;;;;;3.42;100.00;103147.63;4979966;28;51091;-87
2023/01/23 08:16:49;;;;;;;;;25.00;19.50;;;;;3.23;100.00;103112.53;4964097;28;45571;-88
2023/01/23 08:19:14;;;;;;;;;39.50;23.00;;;;;3.32;100.00;103124.91;4980245;28;45453;-84
2023/01/23 08:21:39;;;;;;;;;26.50;18.75;;;;;3.19;100.00;103114.13;4979198;28;45346;-84
2023/01/23 08:24:05;;;;;;;;;37.25;26.00;;;;;3.33;100.00;103135.28;4979049;28;47072;-84
2023/01/23 08:26:31;;;;;;;;;35.00;25.50;;;;;3.35;100.00;103135.34;4978368;28;45472;-85
2023/01/23 08:28:56;;;;;;;;;32.75;23.75;;;;;3.34;100.00;103124.13;4962448;28;45396;-85
2023/01/23 08:31:21;;;;;;;;;34.25;21.75;;;;;3.41;100.00;103127.84;4978923;28;45342;-85
2023/01/23 08:33:47;;;;;;;;;27.50;19.50;;;;;3.51;100.00;103136.81;5007851;28;49833;-88
2023/01/23 08:36:12;;;;;;;;;30.00;21.00;;;;;3.65;100.00;103151.97;4984973;28;45484;-88
2023/01/23 08:38:38;;;;;;;;;31.75;23.00;;;;;3.58;100.00;103131.94;4984960;28;45441;-88
2023/01/23 08:41:04;;;;;;;;;31.25;19.00;;;;;3.63;100.00;103126.97;4984318;28;45508;-88
2023/01/23 08:43:29;;;;;;;;;28.25;21.00;;;;;3.66;100.00;103135.69;4986236;28;47377;-88
2023/01/23 08:45:56;;;;;;;;;33.25;20.25;;;;;3.76;100.00;103151.50;4984883;28;45478;-87
2023/01/23 08:48:23;;;;;;;;;34.50;24.50;;;;;3.76;100.00;103136.06;4986864;28;45639;-87
2023/01/23 08:50:49;;;;;;;;;31.75;22.00;;;;;3.79;100.00;103136.16;4981924;28;45725;-88
2023/01/23 08:53:15;;;;;;;;;32.00;24.00;;;;;3.85;100.00;103141.56;4985150;28;45698;-89
2023/01/23 08:55:40;;;;;;;;;35.50;24.00;;;;;3.67;100.00;103111.69;4985046;28;45985;-88
2023/01/23 08:58:07;;;;;;;;;32.00;22.00;;;;;3.77;100.00;103127.50;4984024;28;45553;-88
2023/01/23 09:00:33;;;;;;;;;22.50;21.25;;;;;3.65;100.00;103112.47;4998756;28;45718;-89
2023/01/23 09:02:59;;;;;;;;;33.50;24.75;;;;;3.77;100.00;103123.22;4984509;28;46994;-88
2023/01/23 09:05:26;;;;;;;;;37.00;25.50;;;;;3.90;100.00;103137.47;4981013;28;45676;-88
2023/01/23 09:07:51;;;;;;;;;45.75;24.50;;;;;3.86;100.00;103136.47;4984668;28;45597;-88
2023/01/23 09:10:16;;;;;;;;;27.75;20.50;;;;;3.86;100.00;103136.47;4989809;28;45621;-87
2023/01/23 09:12:42;;;;;;;;;33.75;24.75;;;;;3.97;100.00;103147.13;4982818;28;46993;-86
2023/01/23 09:15:08;;;;;;;;;30.50;25.25;;;;;4.01;100.00;103161.91;4986718;28;45520;-87
2023/01/23 09:17:34;;;;;;;;;33.75;25.25;;;;;3.83;100.00;103132.88;4991055;28;45555;-87
2023/01/23 09:20:00;;;;;;;;;46.00;24.00;;;;;4.04;100.00;103167.16;4986501;28;45437;-87
2023/01/23 09:22:25;;;;;;;;;35.00;22.00;;;;;3.95;100.00;103146.22;5001007;28;47039;-87
2023/01/23 09:24:53;;;;;;;;;39.50;22.00;;;;;3.79;100.00;103125.84;4979308;28;45802;-87
2023/01/23 09:27:19;;;;;;;;;28.50;20.25;;;;;3.83;100.00;103144.06;4980454;28;45622;-87
2023/01/23 09:29:45;;;;;;;;;32.00;24.00;;;;;3.96;100.00;103170.31;4989195;28;45849;-86
2023/01/23 09:32:10;;;;;;;;;31.25;20.75;;;;;3.87;100.00;103145.06;4993213;28;47027;-87
2023/01/23 09:34:35;;;;;;;;;44.25;27.50;;;;;3.98;100.00;103156.63;4967559;28;45402;-86
2023/01/23 09:37:01;;;;;;;;;37.75;28.00;;;;;3.94;100.00;103152.19;4975364;28;45611;-87
2023/01/23 09:39:26;;;;;;;;;29.25;21.00;;;;;4.10;100.00;103175.97;4970942;28;45467;-87
2023/01/23 09:41:52;;;;;;;;;39.75;24.75;;;;;4.05;100.00;103178.38;4970390;28;48240;-87
2023/01/23 09:44:34;;;;;;;;;18.25;11.75;;;;;4.07;100.00;103184.47;4967446;28;45540;-87
2023/01/23 09:47:24;;;;;;;;;30.25;24.50;;;;;3.86;100.00;103156.16;4974077;28;45631;-87
2023/01/23 09:49:59;;;;;;;;;30.50;21.50;;;;;3.91;100.00;103153.78;4978563;28;45876;-87
2023/01/23 09:52:43;;;;;;;;;28.00;19.75;;;;;4.13;100.00;103178.66;4979677;28;47190;-87
2023/01/23 09:55:13;;;;;;;;;28.00;20.25;;;;;4.19;100.00;103184.91;4971332;28;45422;-85
2023/01/23 09:57:49;;;;;;;;;38.50;22.25;;;;;4.25;100.00;103191.97;4970428;28;45660;-86
2023/01/23 10:00:29;;;;;;;;;31.00;20.00;;;;;4.24;100.00;103193.69;4972809;28;45779;-86
2023/01/23 10:02:55;;;;;;;;;31.00;19.00;;;;;4.19;100.00;103182.31;4972517;28;48308;-85
2023/01/23 10:05:53;;;;;;;;;17.75;15.50;;;;;4.33;100.00;103203.47;4969247;28;45917;-87
2023/01/23 10:08:36;;;;;;;;;27.50;20.50;;;;;4.33;100.00;103194.84;4982955;28;45314;-86
2023/01/23 10:11:07;;;;;;;;;33.50;17.25;;;;;4.23;100.00;103185.88;4973689;28;45541;-87
2023/01/23 10:13:39;;;;;;;;;24.75;18.25;;;;;4.38;100.00;103212.25;4991467;28;47251;-89
2023/01/23 10:16:49;;;;;;;;;31.75;20.75;;;;;4.47;100.00;103206.53;4986939;28;45629;-88
2023/01/23 10:19:22;;;;;;;;;27.50;22.00;;;;;4.37;100.00;103186.41;4984207;28;45544;-88
2023/01/23 10:21:56;;;;;;;;;23.75;18.50;;;;;4.53;100.00;103201.63;4985311;28;46475;-88
2023/01/23 10:24:35;;;;;;;;;27.75;9.25;;;;;4.61;100.00;103199.28;4987316;28;47407;-88
2023/01/23 10:27:20;;;;;;;;;25.25;18.00;;;;;4.59;100.00;103183.75;4973749;28;45578;-86
2023/01/23 10:30:01;;;;;;;;;26.50;20.50;;;;;4.51;100.00;103174.84;4984438;28;45628;-86
2023/01/23 10:32:29;;;;;;;;;27.50;23.00;;;;;4.63;100.00;103200.22;4991605;28;45600;-88
2023/01/23 10:35:02;;;;;;;;;27.00;21.50;;;;;4.63;100.00;103200.22;4984146;28;47473;-86
2023/01/23 10:37:56;;;;;;;;;26.00;19.00;;;;;4.64;100.00;103202.88;4978744;28;45835;-86
2023/01/23 10:43:25;;;;;;;;;19.50;16.00;;;;;4.53;100.00;103211.94;4988872;28;46807;-89
2023/01/23 10:45:51;;;;;;;;;27.50;20.50;;;;;4.51;100.00;103205.81;5004720;28;47418;-89
2023/01/23 10:48:27;;;;;;;;;27.00;21.75;;;;;4.49;100.00;103198.84;4984802;28;45498;-89
2023/01/23 10:50:54;;;;;;;;;29.00;21.00;;;;;4.50;100.00;103201.50;4997486;28;45598;-88
2023/01/23 10:53:20;;;;;;;;;22.25;16.75;;;;;4.52;100.00;103196.41;4990302;28;45484;-88
2023/01/23 10:55:47;;;;;;;;;29.25;21.75;;;;;4.46;100.00;103197.06;4977715;28;47466;-88
2023/01/23 10:58:32;;;;;;;;;35.50;19.25;;;;;4.40;100.00;103202.88;4979953;28;45820;-88
2023/01/23 11:00:59;;;;;;;;;31.75;20.00;;;;;4.28;100.00;103186.06;4997771;28;45310;-83
2023/01/23 11:03:33;;;;;;;;;23.75;18.00;;;;;4.31;100.00;103181.91;4995886;28;45516;-84
2023/01/23 11:06:09;;;;;;;;;22.75;19.75;;;;;4.41;100.00;103183.09;4994975;28;45528;-84
2023/01/23 11:08:37;;;;;;;;;18.50;12.50;;;;;4.33;100.00;103163.88;4995225;28;45477;-85
2023/01/23 11:11:15;;;;;;;;;29.00;16.50;;;;;4.54;100.00;103177.56;4993769;28;45459;-84
2023/01/23 11:13:45;;;;;;;;;23.75;16.50;;;;;4.59;100.00;103176.03;4995816;28;45347;-83
2023/01/23 11:16:15;;;;;;;;;30.00;15.25;;;;;4.64;100.00;103171.91;4981745;28;46527;-84
2023/01/23 11:18:42;;;;;;;;;21.75;17.50;;;;;4.71;100.00;103174.69;4994277;28;46039;-84